Farmerstown, Ohio
Current Conditions -  °F | °C
As of 7:53 PM on Friday 24 Oct 2014 (Local Time) from KPHD Reporting Station
Clear Clear  
Wind Chill: 49°   Ceiling: Unl
Heat Index: 49°   Visibility: 10mi
Dew Point: 41°   Wind: 0mph
Humidity: 74%   Direction: NA
Pressure: 30.02"   Gusts: NA
Location:  40.4489°N, 81.6949°W
Report Text: KPHD 242353Z AUTO 00000KT 10SM CLR 09/05 A3002 RMK AO2 SLP172 T00940050 10172 20094 51005
Loading
Personal Weather Stations






























Interactive Weather Map
Tropical Storm Tracking
New forecast layout! Learn more

10-Day Weather Forecast

Advertisements
Track Severe Weather on mobile